sensor_id;sensor_type;location;lat;lon;timestamp;P1;durP1;ratioP1;P2;durP2;ratioP2
23720;SDS011;42950;52.134;5.578;2023-03-01T00:00:38;16.48;;;9.60;;
23720;SDS011;42950;52.134;5.578;2023-03-01T00:03:04;15.23;;;9.90;;
23720;SDS011;42950;52.134;5.578;2023-03-01T00:05:30;15.90;;;9.40;;
23720;SDS011;42950;52.134;5.578;2023-03-01T00:07:55;14.77;;;9.43;;
23720;SDS011;42950;52.134;5.578;2023-03-01T00:10:21;17.83;;;9.10;;
23720;SDS011;42950;52.134;5.578;2023-03-01T00:12:46;17.25;;;9.70;;
23720;SDS011;42950;52.134;5.578;2023-03-01T00:15:12;16.48;;;10.18;;
23720;SDS011;42950;52.134;5.578;2023-03-01T00:17:37;13.90;;;8.35;;
23720;SDS011;42950;52.134;5.578;2023-03-01T00:20:03;16.80;;;9.43;;
23720;SDS011;42950;52.134;5.578;2023-03-01T00:22:33;13.70;;;9.18;;
23720;SDS011;42950;52.134;5.578;2023-03-01T00:24:58;12.63;;;7.68;;
23720;SDS011;42950;52.134;5.578;2023-03-01T00:27:24;12.40;;;7.88;;
23720;SDS011;42950;52.134;5.578;2023-03-01T00:29:49;12.35;;;7.93;;
23720;SDS011;42950;52.134;5.578;2023-03-01T00:32:15;10.25;;;6.88;;
23720;SDS011;42950;52.134;5.578;2023-03-01T00:34:40;10.27;;;7.00;;
23720;SDS011;42950;52.134;5.578;2023-03-01T00:37:06;9.30;;;7.40;;
23720;SDS011;42950;52.134;5.578;2023-03-01T00:39:32;10.60;;;7.53;;
23720;SDS011;42950;52.134;5.578;2023-03-01T00:41:58;10.13;;;7.88;;
23720;SDS011;42950;52.134;5.578;2023-03-01T00:44:23;11.27;;;7.93;;
23720;SDS011;42950;52.134;5.578;2023-03-01T00:46:49;11.40;;;8.02;;
23720;SDS011;42950;52.134;5.578;2023-03-01T00:49:14;13.90;;;8.20;;
23720;SDS011;42950;52.134;5.578;2023-03-01T00:51:40;13.77;;;7.70;;
23720;SDS011;42950;52.134;5.578;2023-03-01T00:54:09;11.95;;;7.63;;
23720;SDS011;42950;52.134;5.578;2023-03-01T00:56:35;11.63;;;8.15;;
23720;SDS011;42950;52.134;5.578;2023-03-01T00:59:00;12.27;;;7.55;;
23720;SDS011;42950;52.134;5.578;2023-03-01T01:01:27;13.15;;;8.27;;
23720;SDS011;42950;52.134;5.578;2023-03-01T01:03:56;14.05;;;8.70;;
23720;SDS011;42950;52.134;5.578;2023-03-01T01:06:26;11.88;;;7.82;;
23720;SDS011;42950;52.134;5.578;2023-03-01T01:08:53;10.68;;;7.93;;
23720;SDS011;42950;52.134;5.578;2023-03-01T01:11:20;14.05;;;8.23;;
23720;SDS011;42950;52.134;5.578;2023-03-01T01:13:47;13.73;;;8.60;;
23720;SDS011;42950;52.134;5.578;2023-03-01T01:16:14;12.40;;;8.30;;
23720;SDS011;42950;52.134;5.578;2023-03-01T01:18:42;10.60;;;7.82;;
23720;SDS011;42950;52.134;5.578;2023-03-01T01:21:09;11.73;;;7.82;;
23720;SDS011;42950;52.134;5.578;2023-03-01T01:23:37;11.02;;;7.72;;
23720;SDS011;42950;52.134;5.578;2023-03-01T01:26:07;12.02;;;8.07;;
23720;SDS011;42950;52.134;5.578;2023-03-01T01:28:35;12.68;;;8.15;;
23720;SDS011;42950;52.134;5.578;2023-03-01T01:31:01;13.68;;;8.18;;
23720;SDS011;42950;52.134;5.578;2023-03-01T01:33:26;10.40;;;7.70;;
23720;SDS011;42950;52.134;5.578;2023-03-01T01:35:52;11.65;;;8.10;;
23720;SDS011;42950;52.134;5.578;2023-03-01T01:38:18;12.23;;;8.20;;
23720;SDS011;42950;52.134;5.578;2023-03-01T01:40:44;15.90;;;8.80;;
23720;SDS011;42950;52.134;5.578;2023-03-01T01:43:18;14.38;;;8.98;;
23720;SDS011;42950;52.134;5.578;2023-03-01T01:45:45;10.63;;;8.15;;
23720;SDS011;42950;52.134;5.578;2023-03-01T01:48:11;11.50;;;8.60;;
23720;SDS011;42950;52.134;5.578;2023-03-01T01:50:41;11.98;;;8.35;;
23720;SDS011;42950;52.134;5.578;2023-03-01T01:53:10;12.70;;;8.73;;
23720;SDS011;42950;52.134;5.578;2023-03-01T01:55:42;10.82;;;8.48;;
23720;SDS011;42950;52.134;5.578;2023-03-01T01:58:11;11.57;;;8.30;;
23720;SDS011;42950;52.134;5.578;2023-03-01T02:00:40;14.18;;;8.45;;
23720;SDS011;42950;52.134;5.578;2023-03-01T02:03:13;13.43;;;8.85;;
23720;SDS011;42950;52.134;5.578;2023-03-01T02:05:50;11.02;;;8.55;;
23720;SDS011;42950;52.134;5.578;2023-03-01T02:08:37;11.05;;;8.52;;
23720;SDS011;42950;52.134;5.578;2023-03-01T02:11:06;11.30;;;8.32;;
23720;SDS011;42950;52.134;5.578;2023-03-01T02:13:32;12.95;;;8.30;;
23720;SDS011;42950;52.134;5.578;2023-03-01T02:15:59;11.63;;;8.93;;
23720;SDS011;42950;52.134;5.578;2023-03-01T02:18:28;12.35;;;8.60;;
23720;SDS011;42950;52.134;5.578;2023-03-01T02:21:03;11.77;;;8.57;;
23720;SDS011;42950;52.134;5.578;2023-03-01T02:23:30;11.15;;;8.95;;
23720;SDS011;42950;52.134;5.578;2023-03-01T02:28:45;10.85;;;8.63;;
23720;SDS011;42950;52.134;5.578;2023-03-01T02:31:14;11.73;;;9.13;;
23720;SDS011;42950;52.134;5.578;2023-03-01T02:34:01;12.55;;;8.57;;
23720;SDS011;42950;52.134;5.578;2023-03-01T02:36:30;11.10;;;8.70;;
23720;SDS011;42950;52.134;5.578;2023-03-01T02:39:00;13.30;;;9.07;;
23720;SDS011;42950;52.134;5.578;2023-03-01T02:41:28;13.55;;;8.40;;
23720;SDS011;42950;52.134;5.578;2023-03-01T02:43:56;10.60;;;8.15;;
23720;SDS011;42950;52.134;5.578;2023-03-01T02:46:23;11.77;;;8.52;;
23720;SDS011;42950;52.134;5.578;2023-03-01T02:48:50;11.25;;;8.63;;
23720;SDS011;42950;52.134;5.578;2023-03-01T02:54:22;12.93;;;8.43;;
23720;SDS011;42950;52.134;5.578;2023-03-01T02:56:56;12.23;;;8.65;;
23720;SDS011;42950;52.134;5.578;2023-03-01T02:59:23;13.65;;;8.88;;
23720;SDS011;42950;52.134;5.578;2023-03-01T03:01:54;16.55;;;9.60;;
23720;SDS011;42950;52.134;5.578;2023-03-01T03:04:19;12.73;;;9.23;;
23720;SDS011;42950;52.134;5.578;2023-03-01T03:06:46;11.60;;;8.77;;
23720;SDS011;42950;52.134;5.578;2023-03-01T03:09:14;11.73;;;9.07;;
23720;SDS011;42950;52.134;5.578;2023-03-01T03:11:41;12.45;;;9.07;;
23720;SDS011;42950;52.134;5.578;2023-03-01T03:14:08;13.25;;;9.50;;
23720;SDS011;42950;52.134;5.578;2023-03-01T03:16:47;11.63;;;8.65;;
23720;SDS011;42950;52.134;5.578;2023-03-01T03:19:14;10.80;;;8.93;;
23720;SDS011;42950;52.134;5.578;2023-03-01T03:21:42;12.60;;;9.02;;
23720;SDS011;42950;52.134;5.578;2023-03-01T03:24:07;14.00;;;9.88;;
23720;SDS011;42950;52.134;5.578;2023-03-01T03:26:33;12.93;;;10.00;;
23720;SDS011;42950;52.134;5.578;2023-03-01T03:28:59;13.65;;;9.30;;
23720;SDS011;42950;52.134;5.578;2023-03-01T03:31:25;13.52;;;9.73;;
23720;SDS011;42950;52.134;5.578;2023-03-01T03:33:52;12.75;;;9.27;;
23720;SDS011;42950;52.134;5.578;2023-03-01T03:36:21;10.55;;;8.63;;
23720;SDS011;42950;52.134;5.578;2023-03-01T03:38:48;12.77;;;9.38;;
23720;SDS011;42950;52.134;5.578;2023-03-01T03:41:14;12.88;;;9.18;;
23720;SDS011;42950;52.134;5.578;2023-03-01T03:43:41;14.32;;;9.65;;
23720;SDS011;42950;52.134;5.578;2023-03-01T03:46:07;15.60;;;10.80;;
23720;SDS011;42950;52.134;5.578;2023-03-01T03:48:34;12.95;;;10.15;;
23720;SDS011;42950;52.134;5.578;2023-03-01T03:51:05;16.63;;;10.23;;
23720;SDS011;42950;52.134;5.578;2023-03-01T03:53:31;13.48;;;9.85;;
23720;SDS011;42950;52.134;5.578;2023-03-01T03:55:57;14.75;;;10.20;;
23720;SDS011;42950;52.134;5.578;2023-03-01T03:58:23;12.13;;;9.82;;
23720;SDS011;42950;52.134;5.578;2023-03-01T04:00:51;11.60;;;9.85;;
23720;SDS011;42950;52.134;5.578;2023-03-01T04:03:18;14.60;;;10.15;;
23720;SDS011;42950;52.134;5.578;2023-03-01T04:05:45;13.05;;;9.80;;
23720;SDS011;42950;52.134;5.578;2023-03-01T04:08:12;13.35;;;9.85;;
23720;SDS011;42950;52.134;5.578;2023-03-01T04:10:39;12.43;;;10.25;;
23720;SDS011;42950;52.134;5.578;2023-03-01T04:13:06;17.67;;;10.80;;
23720;SDS011;42950;52.134;5.578;2023-03-01T04:15:34;15.93;;;11.10;;
23720;SDS011;42950;52.134;5.578;2023-03-01T04:18:01;14.40;;;11.02;;
23720;SDS011;42950;52.134;5.578;2023-03-01T04:20:28;13.88;;;10.80;;
23720;SDS011;42950;52.134;5.578;2023-03-01T04:22:59;15.68;;;11.18;;
23720;SDS011;42950;52.134;5.578;2023-03-01T04:25:37;12.90;;;10.35;;
23720;SDS011;42950;52.134;5.578;2023-03-01T04:28:03;14.25;;;10.80;;
23720;SDS011;42950;52.134;5.578;2023-03-01T04:30:29;14.60;;;10.27;;
23720;SDS011;42950;52.134;5.578;2023-03-01T04:33:01;12.55;;;10.23;;
23720;SDS011;42950;52.134;5.578;2023-03-01T04:35:28;18.27;;;10.65;;
23720;SDS011;42950;52.134;5.578;2023-03-01T04:37:55;12.60;;;9.57;;
23720;SDS011;42950;52.134;5.578;2023-03-01T04:40:20;13.10;;;9.50;;
23720;SDS011;42950;52.134;5.578;2023-03-01T04:42:46;11.60;;;9.35;;
23720;SDS011;42950;52.134;5.578;2023-03-01T04:45:12;13.95;;;10.00;;
23720;SDS011;42950;52.134;5.578;2023-03-01T04:47:41;14.38;;;10.38;;
23720;SDS011;42950;52.134;5.578;2023-03-01T04:50:10;14.20;;;10.45;;
23720;SDS011;42950;52.134;5.578;2023-03-01T04:52:37;15.05;;;10.20;;
23720;SDS011;42950;52.134;5.578;2023-03-01T04:55:03;18.23;;;10.95;;
23720;SDS011;42950;52.134;5.578;2023-03-01T04:57:30;14.18;;;10.35;;
23720;SDS011;42950;52.134;5.578;2023-03-01T04:59:57;13.40;;;9.88;;
23720;SDS011;42950;52.134;5.578;2023-03-01T05:02:22;13.52;;;10.63;;
23720;SDS011;42950;52.134;5.578;2023-03-01T05:04:48;13.70;;;9.70;;
23720;SDS011;42950;52.134;5.578;2023-03-01T05:07:14;12.18;;;9.77;;
23720;SDS011;42950;52.134;5.578;2023-03-01T05:09:47;12.82;;;9.85;;
23720;SDS011;42950;52.134;5.578;2023-03-01T05:12:13;13.80;;;9.85;;
23720;SDS011;42950;52.134;5.578;2023-03-01T05:14:40;13.77;;;10.45;;
23720;SDS011;42950;52.134;5.578;2023-03-01T05:17:06;12.15;;;9.48;;
23720;SDS011;42950;52.134;5.578;2023-03-01T05:19:32;13.25;;;9.52;;
23720;SDS011;42950;52.134;5.578;2023-03-01T05:21:58;14.25;;;10.25;;
23720;SDS011;42950;52.134;5.578;2023-03-01T05:24:27;15.27;;;10.05;;
23720;SDS011;42950;52.134;5.578;2023-03-01T05:26:53;16.50;;;9.90;;
23720;SDS011;42950;52.134;5.578;2023-03-01T05:29:20;14.00;;;10.18;;
23720;SDS011;42950;52.134;5.578;2023-03-01T05:31:59;16.05;;;10.25;;
23720;SDS011;42950;52.134;5.578;2023-03-01T05:34:27;13.63;;;9.85;;
23720;SDS011;42950;52.134;5.578;2023-03-01T05:36:54;10.60;;;9.20;;
23720;SDS011;42950;52.134;5.578;2023-03-01T05:39:20;12.77;;;10.10;;
23720;SDS011;42950;52.134;5.578;2023-03-01T05:41:47;13.20;;;9.48;;
23720;SDS011;42950;52.134;5.578;2023-03-01T05:44:16;12.90;;;10.20;;
23720;SDS011;42950;52.134;5.578;2023-03-01T05:46:42;12.25;;;9.82;;
23720;SDS011;42950;52.134;5.578;2023-03-01T05:49:08;12.60;;;9.40;;
23720;SDS011;42950;52.134;5.578;2023-03-01T05:51:34;12.45;;;10.15;;
23720;SDS011;42950;52.134;5.578;2023-03-01T05:54:01;16.50;;;10.63;;
23720;SDS011;42950;52.134;5.578;2023-03-01T05:56:27;14.05;;;10.27;;
23720;SDS011;42950;52.134;5.578;2023-03-01T05:58:52;16.08;;;10.38;;
23720;SDS011;42950;52.134;5.578;2023-03-01T06:01:18;18.27;;;9.65;;
23720;SDS011;42950;52.134;5.578;2023-03-01T06:03:44;15.23;;;10.43;;
23720;SDS011;42950;52.134;5.578;2023-03-01T06:06:09;14.95;;;10.40;;
23720;SDS011;42950;52.134;5.578;2023-03-01T06:08:35;15.18;;;10.73;;
23720;SDS011;42950;52.134;5.578;2023-03-01T06:11:00;15.70;;;11.05;;
23720;SDS011;42950;52.134;5.578;2023-03-01T06:13:27;14.57;;;10.40;;
23720;SDS011;42950;52.134;5.578;2023-03-01T06:15:53;13.20;;;10.32;;
23720;SDS011;42950;52.134;5.578;2023-03-01T06:18:18;16.33;;;11.52;;
23720;SDS011;42950;52.134;5.578;2023-03-01T06:20:44;15.63;;;10.95;;
23720;SDS011;42950;52.134;5.578;2023-03-01T06:23:11;18.63;;;11.95;;
23720;SDS011;42950;52.134;5.578;2023-03-01T06:25:37;18.70;;;12.38;;
23720;SDS011;42950;52.134;5.578;2023-03-01T06:28:02;18.77;;;12.02;;
23720;SDS011;42950;52.134;5.578;2023-03-01T06:30:30;18.10;;;12.05;;
23720;SDS011;42950;52.134;5.578;2023-03-01T06:32:56;18.67;;;12.80;;
23720;SDS011;42950;52.134;5.578;2023-03-01T06:35:25;19.95;;;13.30;;
23720;SDS011;42950;52.134;5.578;2023-03-01T06:37:55;18.90;;;12.45;;
23720;SDS011;42950;52.134;5.578;2023-03-01T06:40:22;19.40;;;12.60;;
23720;SDS011;42950;52.134;5.578;2023-03-01T06:42:48;21.40;;;12.98;;
23720;SDS011;42950;52.134;5.578;2023-03-01T06:45:15;18.20;;;12.07;;
23720;SDS011;42950;52.134;5.578;2023-03-01T06:47:42;17.95;;;13.13;;
23720;SDS011;42950;52.134;5.578;2023-03-01T06:50:08;16.35;;;12.35;;
23720;SDS011;42950;52.134;5.578;2023-03-01T06:52:34;23.92;;;14.75;;
23720;SDS011;42950;52.134;5.578;2023-03-01T06:55:01;19.63;;;13.95;;
23720;SDS011;42950;52.134;5.578;2023-03-01T06:57:28;18.90;;;12.80;;
23720;SDS011;42950;52.134;5.578;2023-03-01T06:59:54;23.92;;;14.57;;
23720;SDS011;42950;52.134;5.578;2023-03-01T07:02:19;24.02;;;15.85;;
23720;SDS011;42950;52.134;5.578;2023-03-01T07:04:45;23.20;;;15.20;;
23720;SDS011;42950;52.134;5.578;2023-03-01T07:07:11;30.33;;;16.55;;
23720;SDS011;42950;52.134;5.578;2023-03-01T07:09:36;25.50;;;16.67;;
23720;SDS011;42950;52.134;5.578;2023-03-01T07:12:02;22.25;;;15.55;;
23720;SDS011;42950;52.134;5.578;2023-03-01T07:14:29;31.90;;;18.73;;
23720;SDS011;42950;52.134;5.578;2023-03-01T07:16:55;29.08;;;18.80;;
23720;SDS011;42950;52.134;5.578;2023-03-01T07:19:21;27.95;;;18.25;;
23720;SDS011;42950;52.134;5.578;2023-03-01T07:21:47;27.35;;;17.00;;
23720;SDS011;42950;52.134;5.578;2023-03-01T07:24:13;25.73;;;17.50;;
23720;SDS011;42950;52.134;5.578;2023-03-01T07:26:40;27.30;;;15.93;;
23720;SDS011;42950;52.134;5.578;2023-03-01T07:29:06;26.52;;;16.40;;
23720;SDS011;42950;52.134;5.578;2023-03-01T07:31:33;24.00;;;15.20;;
23720;SDS011;42950;52.134;5.578;2023-03-01T07:33:59;24.63;;;16.02;;
23720;SDS011;42950;52.134;5.578;2023-03-01T07:36:26;21.08;;;14.88;;
23720;SDS011;42950;52.134;5.578;2023-03-01T07:38:52;25.23;;;14.73;;
23720;SDS011;42950;52.134;5.578;2023-03-01T07:41:18;23.38;;;15.05;;
23720;SDS011;42950;52.134;5.578;2023-03-01T07:43:44;21.25;;;13.95;;
23720;SDS011;42950;52.134;5.578;2023-03-01T07:46:09;19.10;;;14.02;;
23720;SDS011;42950;52.134;5.578;2023-03-01T07:48:35;22.00;;;13.25;;
23720;SDS011;42950;52.134;5.578;2023-03-01T07:51:01;20.13;;;13.77;;
23720;SDS011;42950;52.134;5.578;2023-03-01T07:53:28;19.05;;;13.23;;
23720;SDS011;42950;52.134;5.578;2023-03-01T07:56:06;19.23;;;13.50;;
23720;SDS011;42950;52.134;5.578;2023-03-01T07:58:35;19.33;;;13.55;;
23720;SDS011;42950;52.134;5.578;2023-03-01T08:01:07;21.95;;;14.10;;
23720;SDS011;42950;52.134;5.578;2023-03-01T08:03:35;21.80;;;14.35;;
23720;SDS011;42950;52.134;5.578;2023-03-01T08:06:01;22.13;;;13.60;;
23720;SDS011;42950;52.134;5.578;2023-03-01T08:08:28;22.98;;;13.57;;
23720;SDS011;42950;52.134;5.578;2023-03-01T08:10:58;22.45;;;12.38;;
23720;SDS011;42950;52.134;5.578;2023-03-01T08:13:25;16.02;;;11.63;;
23720;SDS011;42950;52.134;5.578;2023-03-01T08:15:51;19.20;;;11.05;;
23720;SDS011;42950;52.134;5.578;2023-03-01T08:18:17;15.90;;;10.40;;
23720;SDS011;42950;52.134;5.578;2023-03-01T08:20:44;13.63;;;9.88;;
23720;SDS011;42950;52.134;5.578;2023-03-01T08:23:09;15.50;;;10.20;;
23720;SDS011;42950;52.134;5.578;2023-03-01T08:25:35;16.25;;;10.07;;
23720;SDS011;42950;52.134;5.578;2023-03-01T08:28:01;15.05;;;10.13;;
23720;SDS011;42950;52.134;5.578;2023-03-01T08:30:26;17.95;;;11.15;;
23720;SDS011;42950;52.134;5.578;2023-03-01T08:32:52;17.92;;;10.63;;
23720;SDS011;42950;52.134;5.578;2023-03-01T08:35:18;19.25;;;11.52;;
23720;SDS011;42950;52.134;5.578;2023-03-01T08:37:44;15.82;;;11.60;;
23720;SDS011;42950;52.134;5.578;2023-03-01T08:40:10;20.95;;;12.57;;
23720;SDS011;42950;52.134;5.578;2023-03-01T08:42:38;18.98;;;11.93;;
23720;SDS011;42950;52.134;5.578;2023-03-01T08:45:04;16.27;;;10.82;;
23720;SDS011;42950;52.134;5.578;2023-03-01T08:47:30;17.08;;;11.50;;
23720;SDS011;42950;52.134;5.578;2023-03-01T08:49:58;15.73;;;10.93;;
23720;SDS011;42950;52.134;5.578;2023-03-01T08:52:24;14.15;;;10.95;;
23720;SDS011;42950;52.134;5.578;2023-03-01T08:54:50;17.10;;;10.05;;
23720;SDS011;42950;52.134;5.578;2023-03-01T08:57:16;14.70;;;8.98;;
23720;SDS011;42950;52.134;5.578;2023-03-01T08:59:41;13.32;;;9.00;;
23720;SDS011;42950;52.134;5.578;2023-03-01T09:02:14;14.50;;;9.38;;
23720;SDS011;42950;52.134;5.578;2023-03-01T09:04:41;12.15;;;8.90;;
23720;SDS011;42950;52.134;5.578;2023-03-01T09:07:07;11.00;;;9.32;;
23720;SDS011;42950;52.134;5.578;2023-03-01T09:09:33;14.98;;;9.23;;
23720;SDS011;42950;52.134;5.578;2023-03-01T09:11:59;11.77;;;8.90;;
23720;SDS011;42950;52.134;5.578;2023-03-01T09:14:24;10.63;;;7.75;;
23720;SDS011;42950;52.134;5.578;2023-03-01T09:16:50;9.57;;;8.02;;
23720;SDS011;42950;52.134;5.578;2023-03-01T09:19:16;12.27;;;8.20;;
23720;SDS011;42950;52.134;5.578;2023-03-01T09:21:42;12.93;;;8.70;;
23720;SDS011;42950;52.134;5.578;2023-03-01T09:24:17;11.60;;;7.95;;
23720;SDS011;42950;52.134;5.578;2023-03-01T09:26:44;11.57;;;7.53;;
23720;SDS011;42950;52.134;5.578;2023-03-01T09:29:11;7.07;;;6.38;;
23720;SDS011;42950;52.134;5.578;2023-03-01T09:31:37;8.25;;;6.90;;
23720;SDS011;42950;52.134;5.578;2023-03-01T09:34:02;9.52;;;6.38;;
23720;SDS011;42950;52.134;5.578;2023-03-01T09:36:28;8.00;;;5.85;;
23720;SDS011;42950;52.134;5.578;2023-03-01T09:38:54;9.48;;;5.88;;
23720;SDS011;42950;52.134;5.578;2023-03-01T09:41:29;10.43;;;6.22;;
23720;SDS011;42950;52.134;5.578;2023-03-01T09:47:16;9.70;;;5.47;;
23720;SDS011;42950;52.134;5.578;2023-03-01T09:49:53;6.43;;;5.30;;
23720;SDS011;42950;52.134;5.578;2023-03-01T09:55:37;6.80;;;5.28;;
23720;SDS011;42950;52.134;5.578;2023-03-01T10:00:58;6.15;;;4.95;;
23720;SDS011;42950;52.134;5.578;2023-03-01T10:06:10;6.68;;;4.90;;
23720;SDS011;42950;52.134;5.578;2023-03-01T10:08:43;7.25;;;4.60;;
23720;SDS011;42950;52.134;5.578;2023-03-01T10:11:27;8.93;;;4.32;;
23720;SDS011;42950;52.134;5.578;2023-03-01T10:14:05;7.03;;;4.22;;
23720;SDS011;42950;52.134;5.578;2023-03-01T10:16:51;4.60;;;3.45;;
23720;SDS011;42950;52.134;5.578;2023-03-01T10:19:24;4.93;;;3.92;;
23720;SDS011;42950;52.134;5.578;2023-03-01T10:21:57;6.15;;;4.10;;
23720;SDS011;42950;52.134;5.578;2023-03-01T10:24:28;6.13;;;4.57;;
23720;SDS011;42950;52.134;5.578;2023-03-01T10:27:01;6.93;;;3.45;;
23720;SDS011;42950;52.134;5.578;2023-03-01T10:29:31;4.45;;;3.50;;
23720;SDS011;42950;52.134;5.578;2023-03-01T10:32:06;5.90;;;4.32;;
23720;SDS011;42950;52.134;5.578;2023-03-01T10:34:32;5.10;;;3.65;;
23720;SDS011;42950;52.134;5.578;2023-03-01T10:37:21;4.32;;;3.63;;
23720;SDS011;42950;52.134;5.578;2023-03-01T10:42:27;4.40;;;3.05;;
23720;SDS011;42950;52.134;5.578;2023-03-01T10:44:55;4.90;;;2.90;;
23720;SDS011;42950;52.134;5.578;2023-03-01T10:47:23;4.47;;;3.38;;
23720;SDS011;42950;52.134;5.578;2023-03-01T10:49:52;4.72;;;3.40;;
23720;SDS011;42950;52.134;5.578;2023-03-01T10:52:18;4.97;;;3.47;;
23720;SDS011;42950;52.134;5.578;2023-03-01T10:54:57;4.30;;;3.30;;
23720;SDS011;42950;52.134;5.578;2023-03-01T10:57:43;4.35;;;3.35;;
23720;SDS011;42950;52.134;5.578;2023-03-01T11:02:45;7.07;;;3.40;;
23720;SDS011;42950;52.134;5.578;2023-03-01T11:05:24;4.38;;;3.22;;
23720;SDS011;42950;52.134;5.578;2023-03-01T11:07:53;4.25;;;3.03;;
23720;SDS011;42950;52.134;5.578;2023-03-01T11:10:33;5.63;;;3.55;;
23720;SDS011;42950;52.134;5.578;2023-03-01T11:13:14;4.68;;;3.58;;
23720;SDS011;42950;52.134;5.578;2023-03-01T11:16:00;4.18;;;3.78;;
23720;SDS011;42950;52.134;5.578;2023-03-01T11:18:29;5.47;;;3.58;;
23720;SDS011;42950;52.134;5.578;2023-03-01T11:20:55;5.88;;;3.72;;
23720;SDS011;42950;52.134;5.578;2023-03-01T11:23:24;4.70;;;3.72;;
23720;SDS011;42950;52.134;5.578;2023-03-01T11:25:55;6.97;;;4.10;;
23720;SDS011;42950;52.134;5.578;2023-03-01T11:28:23;5.90;;;4.00;;
23720;SDS011;42950;52.134;5.578;2023-03-01T11:30:57;4.38;;;3.92;;
23720;SDS011;42950;52.134;5.578;2023-03-01T11:36:01;4.30;;;3.80;;
23720;SDS011;42950;52.134;5.578;2023-03-01T11:38:30;4.95;;;3.78;;
23720;SDS011;42950;52.134;5.578;2023-03-01T11:44:03;5.75;;;4.38;;
23720;SDS011;42950;52.134;5.578;2023-03-01T11:46:40;6.47;;;3.47;;
23720;SDS011;42950;52.134;5.578;2023-03-01T11:55:14;6.63;;;3.67;;
23720;SDS011;42950;52.134;5.578;2023-03-01T11:57:43;5.30;;;3.40;;
23720;SDS011;42950;52.134;5.578;2023-03-01T12:00:36;4.22;;;3.35;;
23720;SDS011;42950;52.134;5.578;2023-03-01T12:17:46;4.85;;;3.45;;
23720;SDS011;42950;52.134;5.578;2023-03-01T12:20:21;3.70;;;3.20;;
23720;SDS011;42950;52.134;5.578;2023-03-01T12:25:48;5.45;;;3.40;;
23720;SDS011;42950;52.134;5.578;2023-03-01T12:33:53;4.95;;;3.60;;
23720;SDS011;42950;52.134;5.578;2023-03-01T12:39:42;4.05;;;3.42;;
23720;SDS011;42950;52.134;5.578;2023-03-01T12:50:42;5.63;;;3.53;;
23720;SDS011;42950;52.134;5.578;2023-03-01T12:56:09;4.60;;;3.33;;
23720;SDS011;42950;52.134;5.578;2023-03-01T13:17:48;3.65;;;3.22;;
23720;SDS011;42950;52.134;5.578;2023-03-01T13:20:45;5.63;;;3.10;;
23720;SDS011;42950;52.134;5.578;2023-03-01T13:23:12;4.32;;;3.20;;
23720;SDS011;42950;52.134;5.578;2023-03-01T13:34:00;5.65;;;3.80;;
23720;SDS011;42950;52.134;5.578;2023-03-01T13:41:57;4.72;;;3.63;;
23720;SDS011;42950;52.134;5.578;2023-03-01T13:46:50;5.20;;;3.55;;
23720;SDS011;42950;52.134;5.578;2023-03-01T13:49:45;4.72;;;3.30;;
23720;SDS011;42950;52.134;5.578;2023-03-01T13:52:38;4.65;;;3.15;;
23720;SDS011;42950;52.134;5.578;2023-03-01T13:55:14;3.45;;;3.05;;
23720;SDS011;42950;52.134;5.578;2023-03-01T13:57:44;6.70;;;3.30;;
23720;SDS011;42950;52.134;5.578;2023-03-01T14:00:30;5.25;;;3.63;;
23720;SDS011;42950;52.134;5.578;2023-03-01T14:03:21;3.50;;;3.20;;
23720;SDS011;42950;52.134;5.578;2023-03-01T14:06:03;4.97;;;3.55;;
23720;SDS011;42950;52.134;5.578;2023-03-01T14:08:31;5.20;;;3.90;;
23720;SDS011;42950;52.134;5.578;2023-03-01T14:19:17;5.78;;;3.78;;
23720;SDS011;42950;52.134;5.578;2023-03-01T14:21:46;4.05;;;3.45;;
23720;SDS011;42950;52.134;5.578;2023-03-01T14:24:20;5.38;;;3.22;;
23720;SDS011;42950;52.134;5.578;2023-03-01T14:26:47;6.35;;;3.38;;
23720;SDS011;42950;52.134;5.578;2023-03-01T14:29:29;4.10;;;3.10;;
23720;SDS011;42950;52.134;5.578;2023-03-01T14:32:35;5.40;;;3.40;;
23720;SDS011;42950;52.134;5.578;2023-03-01T14:34:56;5.95;;;3.45;;
23720;SDS011;42950;52.134;5.578;2023-03-01T14:37:26;5.85;;;3.30;;
23720;SDS011;42950;52.134;5.578;2023-03-01T14:39:58;4.10;;;3.50;;
23720;SDS011;42950;52.134;5.578;2023-03-01T14:42:27;6.07;;;3.95;;
23720;SDS011;42950;52.134;5.578;2023-03-01T14:44:59;4.55;;;3.47;;
23720;SDS011;42950;52.134;5.578;2023-03-01T14:47:32;4.60;;;3.47;;
23720;SDS011;42950;52.134;5.578;2023-03-01T14:52:36;5.93;;;3.67;;
23720;SDS011;42950;52.134;5.578;2023-03-01T14:55:05;4.43;;;3.75;;
23720;SDS011;42950;52.134;5.578;2023-03-01T14:57:43;4.10;;;2.92;;
23720;SDS011;42950;52.134;5.578;2023-03-01T15:00:10;4.20;;;3.53;;
23720;SDS011;42950;52.134;5.578;2023-03-01T15:02:47;7.75;;;4.05;;
23720;SDS011;42950;52.134;5.578;2023-03-01T15:05:39;5.32;;;3.75;;
23720;SDS011;42950;52.134;5.578;2023-03-01T15:08:05;4.80;;;3.58;;
23720;SDS011;42950;52.134;5.578;2023-03-01T15:10:31;4.93;;;3.30;;
23720;SDS011;42950;52.134;5.578;2023-03-01T15:13:14;6.03;;;3.72;;
23720;SDS011;42950;52.134;5.578;2023-03-01T15:15:47;6.25;;;3.58;;
23720;SDS011;42950;52.134;5.578;2023-03-01T15:20:42;4.13;;;3.35;;
23720;SDS011;42950;52.134;5.578;2023-03-01T15:23:16;6.20;;;3.80;;
23720;SDS011;42950;52.134;5.578;2023-03-01T15:25:51;4.32;;;3.42;;
23720;SDS011;42950;52.134;5.578;2023-03-01T15:28:22;6.15;;;3.25;;
23720;SDS011;42950;52.134;5.578;2023-03-01T15:30:54;4.22;;;3.20;;
23720;SDS011;42950;52.134;5.578;2023-03-01T15:35:57;5.35;;;3.17;;
23720;SDS011;42950;52.134;5.578;2023-03-01T15:40:58;4.10;;;3.28;;
23720;SDS011;42950;52.134;5.578;2023-03-01T15:43:59;5.75;;;4.00;;
23720;SDS011;42950;52.134;5.578;2023-03-01T15:46:25;6.82;;;4.53;;
23720;SDS011;42950;52.134;5.578;2023-03-01T15:48:53;5.93;;;4.00;;
23720;SDS011;42950;52.134;5.578;2023-03-01T15:51:54;6.80;;;4.00;;
23720;SDS011;42950;52.134;5.578;2023-03-01T15:54:17;7.97;;;3.90;;
23720;SDS011;42950;52.134;5.578;2023-03-01T15:56:44;9.55;;;4.10;;
23720;SDS011;42950;52.134;5.578;2023-03-01T15:59:13;5.97;;;4.22;;
23720;SDS011;42950;52.134;5.578;2023-03-01T16:01:39;4.82;;;3.80;;
23720;SDS011;42950;52.134;5.578;2023-03-01T16:04:09;5.72;;;4.18;;
23720;SDS011;42950;52.134;5.578;2023-03-01T16:06:38;4.70;;;3.95;;
23720;SDS011;42950;52.134;5.578;2023-03-01T16:09:04;4.07;;;3.67;;
23720;SDS011;42950;52.134;5.578;2023-03-01T16:11:30;5.93;;;3.88;;
23720;SDS011;42950;52.134;5.578;2023-03-01T16:13:57;5.88;;;3.90;;
23720;SDS011;42950;52.134;5.578;2023-03-01T16:16:23;5.80;;;3.53;;
23720;SDS011;42950;52.134;5.578;2023-03-01T16:18:48;6.10;;;4.07;;
23720;SDS011;42950;52.134;5.578;2023-03-01T16:21:15;5.32;;;3.90;;
23720;SDS011;42950;52.134;5.578;2023-03-01T16:23:45;9.00;;;4.00;;
23720;SDS011;42950;52.134;5.578;2023-03-01T16:26:11;6.72;;;4.40;;
23720;SDS011;42950;52.134;5.578;2023-03-01T16:28:38;5.47;;;3.88;;
23720;SDS011;42950;52.134;5.578;2023-03-01T16:31:06;5.90;;;4.03;;
23720;SDS011;42950;52.134;5.578;2023-03-01T16:33:32;6.10;;;4.47;;
23720;SDS011;42950;52.134;5.578;2023-03-01T16:35:59;6.45;;;4.93;;
23720;SDS011;42950;52.134;5.578;2023-03-01T16:38:27;8.10;;;5.07;;
23720;SDS011;42950;52.134;5.578;2023-03-01T16:40:53;7.38;;;4.57;;
23720;SDS011;42950;52.134;5.578;2023-03-01T16:43:18;7.82;;;4.35;;
23720;SDS011;42950;52.134;5.578;2023-03-01T16:45:44;6.32;;;4.72;;
23720;SDS011;42950;52.134;5.578;2023-03-01T16:48:10;5.15;;;4.22;;
23720;SDS011;42950;52.134;5.578;2023-03-01T16:50:36;6.20;;;4.50;;
23720;SDS011;42950;52.134;5.578;2023-03-01T16:53:02;6.18;;;4.72;;